createdAt,value
2018-08-28T00:00:47.253Z,99.90
2018-08-28T00:03:39.351Z,99.90
2018-08-28T00:06:09.725Z,99.90
2018-08-28T00:08:40.796Z,99.90
2018-08-28T00:11:11.984Z,99.90
2018-08-28T00:13:43.391Z,99.90
2018-08-28T00:16:13.778Z,99.90
2018-08-28T00:19:05.604Z,99.90
2018-08-28T00:21:35.998Z,99.90
2018-08-28T00:24:07.162Z,99.90
2018-08-28T00:26:37.586Z,99.90
2018-08-28T00:29:07.981Z,99.90
2018-08-28T00:31:40.085Z,99.90
2018-08-28T00:34:10.556Z,99.90
2018-08-28T00:36:40.933Z,99.90
2018-08-28T00:39:11.308Z,99.90
2018-08-28T00:41:41.723Z,99.90
2018-08-28T00:44:12.116Z,99.90
2018-08-28T00:46:42.503Z,99.90
2018-08-28T00:52:02.909Z,99.90
2018-08-28T00:54:33.309Z,99.90
2018-08-28T00:57:03.690Z,99.90
2018-08-28T00:59:34.085Z,99.90
2018-08-28T01:02:04.490Z,99.90
2018-08-28T01:04:35.907Z,99.90
2018-08-28T01:07:06.291Z,99.90
2018-08-28T01:09:36.715Z,99.90
2018-08-28T01:12:07.174Z,99.90
2018-08-28T01:14:37.512Z,99.90
2018-08-28T01:17:08.665Z,99.90
2018-08-28T01:19:39.048Z,99.90
2018-08-28T01:22:09.445Z,99.90
2018-08-28T01:25:01.214Z,99.90
2018-08-28T01:27:32.366Z,99.90
2018-08-28T01:30:03.757Z,99.90
2018-08-28T01:32:55.606Z,99.90
2018-08-28T01:35:25.984Z,99.90
2018-08-28T01:37:56.295Z,99.90
2018-08-28T01:40:27.481Z,99.90
2018-08-28T01:43:19.290Z,99.90
2018-08-28T01:45:49.711Z,99.90
2018-08-28T01:48:20.100Z,99.90
2018-08-28T01:50:50.489Z,99.90
2018-08-28T01:53:40.972Z,99.90
2018-08-28T01:56:11.349Z,99.90
2018-08-28T01:58:41.728Z,99.90
2018-08-28T02:01:12.817Z,99.90
2018-08-28T02:03:43.125Z,99.90
2018-08-28T02:06:13.520Z,99.90
2018-08-28T02:08:43.951Z,99.90
2018-08-28T02:11:16.397Z,99.90
2018-08-28T02:13:47.557Z,99.90
2018-08-28T02:16:17.974Z,99.90
2018-08-28T02:18:48.372Z,99.90
2018-08-28T02:21:18.760Z,99.90
2018-08-28T02:23:55.309Z,99.90
2018-08-28T02:26:25.703Z,99.90
2018-08-28T02:28:56.856Z,99.90
2018-08-28T02:31:28.039Z,99.90
2018-08-28T02:33:58.418Z,99.90
2018-08-28T02:36:29.561Z,99.90
2018-08-28T02:38:59.974Z,99.90
2018-08-28T02:41:30.547Z,99.90
2018-08-28T02:44:00.875Z,99.90
2018-08-28T02:46:32.043Z,99.90
2018-08-28T02:49:21.529Z,99.90
2018-08-28T02:51:55.014Z,99.90
2018-08-28T02:54:26.420Z,99.90
2018-08-28T02:56:57.580Z,99.90
2018-08-28T02:59:27.992Z,99.90
2018-08-28T03:01:58.381Z,99.90
2018-08-28T03:04:28.772Z,99.90
2018-08-28T03:06:59.171Z,99.90
2018-08-28T03:09:30.257Z,99.90
2018-08-28T03:12:04.759Z,99.90
2018-08-28T03:14:35.082Z,99.90
2018-08-28T03:17:05.460Z,99.90
2018-08-28T03:19:35.866Z,99.90
2018-08-28T03:22:27.595Z,99.90
2018-08-28T03:25:19.407Z,99.90
2018-08-28T03:27:50.016Z,99.90
2018-08-28T03:30:20.331Z,99.90
2018-08-28T03:32:50.731Z,99.90
2018-08-28T03:35:23.097Z,99.90
2018-08-28T03:37:53.466Z,99.90
2018-08-28T03:40:23.875Z,99.90
2018-08-28T03:42:55.034Z,99.90
2018-08-28T03:45:25.414Z,99.90
2018-08-28T03:47:55.841Z,99.90
2018-08-28T03:50:26.238Z,99.90
2018-08-28T03:52:56.547Z,99.90
2018-08-28T03:55:27.014Z,99.90
2018-08-28T03:57:58.125Z,99.90
2018-08-28T04:00:28.696Z,99.90
2018-08-28T04:03:03.214Z,99.90
2018-08-28T04:05:33.601Z,99.90
2018-08-28T04:08:03.984Z,99.90
2018-08-28T04:10:35.555Z,99.90
2018-08-28T04:13:06.698Z,99.90
2018-08-28T04:15:37.084Z,99.90
2018-08-28T04:18:26.863Z,99.90
2018-08-28T04:21:04.569Z,99.90
2018-08-28T04:23:54.367Z,99.90
2018-08-28T04:26:24.756Z,99.90
2018-08-28T04:28:55.152Z,99.90
2018-08-28T04:31:25.570Z,99.90
2018-08-28T04:33:55.972Z,99.90
2018-08-28T04:36:26.345Z,99.90
2018-08-28T04:38:56.759Z,99.90
2018-08-28T04:41:27.898Z,99.90
2018-08-28T04:44:00.090Z,99.90
2018-08-28T04:46:30.431Z,99.90
2018-08-28T04:49:00.840Z,99.90
2018-08-28T04:51:31.155Z,99.90
2018-08-28T04:54:01.595Z,99.90
2018-08-28T04:56:31.933Z,99.90
2018-08-28T04:59:02.317Z,99.90
2018-08-28T05:01:33.435Z,99.90
2018-08-28T05:06:48.264Z,99.90
2018-08-28T05:09:19.341Z,99.90
2018-08-28T05:11:49.740Z,99.90
2018-08-28T05:14:20.914Z,99.90
2018-08-28T05:17:10.405Z,99.90
2018-08-28T05:19:44.913Z,99.90
2018-08-28T05:22:37.670Z,99.90
2018-08-28T05:25:29.456Z,99.90
2018-08-28T05:28:00.575Z,99.90
2018-08-28T05:30:31.040Z,99.90
2018-08-28T05:33:21.518Z,99.90
2018-08-28T05:35:52.665Z,99.90
2018-08-28T05:38:24.009Z,99.90
2018-08-28T05:40:55.179Z,99.90
2018-08-28T05:43:25.571Z,99.90
2018-08-28T05:45:56.718Z,99.90
2018-08-28T05:48:27.914Z,99.90
2018-08-28T05:51:19.710Z,99.90
2018-08-28T05:53:50.110Z,99.90
2018-08-28T05:56:20.585Z,99.90
2018-08-28T05:58:50.914Z,99.90
2018-08-28T06:01:21.333Z,99.90
2018-08-28T06:03:51.733Z,99.90
2018-08-28T06:06:22.888Z,99.90
2018-08-28T06:08:53.470Z,99.90
2018-08-28T06:11:24.456Z,99.90
2018-08-28T06:13:54.847Z,99.90
2018-08-28T06:16:25.271Z,99.90
2018-08-28T06:18:55.652Z,99.90
2018-08-28T06:21:26.050Z,99.90
2018-08-28T06:23:56.399Z,99.90
2018-08-28T06:26:26.863Z,99.90
2018-08-28T06:28:57.934Z,99.90
2018-08-28T06:31:28.364Z,99.90
2018-08-28T06:33:58.827Z,99.90
2018-08-28T06:36:29.152Z,99.90
2018-08-28T06:38:59.582Z,99.90
2018-08-28T06:41:29.971Z,99.90
2018-08-28T06:44:00.463Z,99.90
2018-08-28T06:46:36.905Z,99.90
2018-08-28T06:49:07.295Z,99.90
2018-08-28T06:51:37.617Z,99.90
2018-08-28T06:54:08.274Z,99.90
2018-08-28T06:56:39.475Z,99.90
2018-08-28T06:59:09.822Z,99.90
2018-08-28T07:01:40.238Z,99.90
2018-08-28T07:04:10.620Z,99.90
2018-08-28T07:06:40.945Z,99.90
2018-08-28T07:09:11.358Z,99.90
2018-08-28T07:11:41.758Z,99.90
2018-08-28T07:14:12.128Z,99.90
2018-08-28T07:16:42.556Z,99.90
2018-08-28T07:19:12.949Z,99.90
2018-08-28T07:21:44.092Z,99.90
2018-08-28T07:24:15.259Z,99.90
2018-08-28T07:26:45.639Z,99.90
2018-08-28T07:29:16.049Z,99.90
2018-08-28T07:32:07.882Z,99.90
2018-08-28T07:34:38.274Z,99.90
2018-08-28T07:37:08.664Z,99.90
2018-08-28T07:39:39.084Z,99.90
2018-08-28T07:42:09.480Z,99.90
2018-08-28T07:44:46.026Z,99.90
2018-08-28T07:47:16.408Z,99.90
2018-08-28T07:49:46.787Z,99.90
2018-08-28T07:52:17.197Z,99.90
2018-08-28T07:54:47.576Z,99.90
2018-08-28T07:57:17.969Z,99.90
2018-08-28T07:59:53.508Z,99.90
2018-08-28T08:02:23.904Z,99.90
2018-08-28T08:04:55.078Z,99.90
2018-08-28T08:07:25.498Z,99.90
2018-08-28T08:09:55.890Z,99.90
2018-08-28T08:12:26.291Z,99.90
2018-08-28T08:14:56.718Z,99.90
2018-08-28T08:17:27.113Z,99.90
2018-08-28T08:19:57.512Z,99.90
2018-08-28T08:22:27.924Z,99.90
2018-08-28T08:24:58.312Z,99.90
2018-08-28T08:27:28.695Z,99.90
2018-08-28T08:29:59.115Z,99.90
2018-08-28T08:32:30.257Z,99.90
2018-08-28T08:35:01.424Z,99.90
2018-08-28T08:37:31.839Z,99.90
2018-08-28T08:40:02.992Z,99.90
2018-08-28T08:42:33.388Z,99.90
2018-08-28T08:45:03.829Z,99.90
2018-08-28T08:47:34.201Z,99.90
2018-08-28T08:50:04.581Z,99.90
2018-08-28T08:52:34.993Z,99.90
2018-08-28T08:55:05.373Z,99.90
2018-08-28T08:57:35.770Z,99.90
2018-08-28T09:00:06.196Z,99.90
2018-08-28T09:02:36.603Z,99.90
2018-08-28T09:05:06.991Z,99.90
2018-08-28T09:07:39.428Z,99.90
2018-08-28T09:13:03.973Z,99.90
2018-08-28T09:15:53.474Z,99.90
2018-08-28T09:18:23.886Z,99.90
2018-08-28T09:21:15.695Z,99.90
2018-08-28T09:23:46.114Z,99.90
2018-08-28T09:26:16.502Z,99.90
2018-08-28T09:28:46.905Z,99.90
2018-08-28T09:31:17.415Z,99.90
2018-08-28T09:33:47.798Z,99.90
2018-08-28T09:36:18.191Z,99.90
2018-08-28T09:38:48.646Z,99.90
2018-08-28T09:41:18.995Z,99.90
2018-08-28T09:43:49.394Z,99.90
2018-08-28T09:46:19.791Z,99.90
2018-08-28T09:48:50.187Z,99.90
2018-08-28T09:51:20.567Z,99.90
2018-08-28T09:53:50.981Z,99.90
2018-08-28T09:56:21.367Z,99.90
2018-08-28T09:58:51.743Z,99.90
2018-08-28T10:01:22.174Z,99.90
2018-08-28T10:03:54.616Z,99.90
2018-08-28T10:06:45.164Z,99.90
2018-08-28T10:09:15.562Z,99.90
2018-08-28T10:11:45.961Z,99.90
2018-08-28T10:14:16.390Z,99.90
2018-08-28T10:16:46.797Z,99.90
2018-08-28T10:19:17.171Z,99.90
2018-08-28T10:21:47.571Z,99.90
2018-08-28T10:24:17.960Z,99.90
2018-08-28T10:26:49.121Z,99.90
2018-08-28T10:29:19.539Z,99.90
2018-08-28T10:31:49.924Z,99.90
2018-08-28T10:34:20.321Z,99.90
2018-08-28T10:36:58.239Z,99.90
2018-08-28T10:39:28.563Z,99.90
2018-08-28T10:42:18.352Z,99.90
2018-08-28T10:44:48.758Z,99.90
2018-08-28T10:47:19.359Z,99.90
2018-08-28T10:49:49.769Z,99.90
2018-08-28T10:52:20.912Z,99.90
2018-08-28T10:54:51.989Z,99.90
2018-08-28T10:57:22.412Z,99.90
2018-08-28T10:59:52.796Z,99.90
2018-08-28T11:02:23.172Z,99.90
2018-08-28T11:04:54.567Z,99.90
2018-08-28T11:07:25.143Z,99.90
2018-08-28T11:09:55.524Z,99.90
2018-08-28T11:12:26.974Z,99.90
2018-08-28T11:14:57.354Z,99.90
2018-08-28T11:17:28.768Z,99.90
2018-08-28T11:19:59.112Z,99.90
2018-08-28T11:22:29.513Z,99.90
2018-08-28T11:24:59.905Z,99.90
2018-08-28T11:27:50.695Z,99.90
2018-08-28T11:30:22.098Z,99.90
2018-08-28T11:32:53.245Z,99.90
2018-08-28T11:35:24.440Z,99.90
2018-08-28T11:38:02.085Z,99.90
2018-08-28T11:40:32.497Z,99.90
2018-08-28T11:43:04.938Z,99.90
2018-08-28T11:45:36.268Z,99.90
2018-08-28T11:48:06.711Z,99.90
2018-08-28T11:50:38.122Z,99.90
2018-08-28T11:53:08.518Z,99.90
2018-08-28T11:55:38.931Z,99.90
2018-08-28T11:58:09.317Z,99.90
2018-08-28T12:00:39.689Z,99.90
2018-08-28T12:03:10.111Z,99.90
2018-08-28T12:05:42.546Z,99.90
2018-08-28T12:08:12.939Z,99.90
2018-08-28T12:10:43.365Z,99.90
2018-08-28T12:13:14.132Z,99.90
2018-08-28T12:15:44.422Z,99.90
2018-08-28T12:18:14.854Z,99.90
2018-08-28T12:20:45.279Z,99.90
2018-08-28T12:23:18.726Z,99.90
2018-08-28T12:25:50.087Z,99.90
2018-08-28T12:28:23.546Z,99.90
2018-08-28T12:30:54.713Z,99.90
2018-08-28T12:33:25.119Z,99.90
2018-08-28T12:35:56.283Z,99.90
2018-08-28T12:38:26.665Z,99.90
2018-08-28T12:40:57.083Z,99.90
2018-08-28T12:43:27.464Z,99.90
2018-08-28T12:45:57.864Z,99.90
2018-08-28T12:48:29.054Z,99.90
2018-08-28T12:50:59.445Z,99.90
2018-08-28T12:53:30.597Z,99.90
2018-08-28T12:56:00.944Z,99.90
2018-08-28T12:58:31.335Z,99.90
2018-08-28T13:01:01.711Z,99.90
2018-08-28T13:03:32.076Z,99.90
2018-08-28T13:06:02.407Z,99.90
2018-08-28T13:08:33.502Z,99.90
2018-08-28T13:11:11.240Z,99.90
2018-08-28T13:13:41.616Z,99.90
2018-08-28T13:16:12.011Z,99.90
2018-08-28T13:18:42.422Z,99.90
2018-08-28T13:21:12.814Z,99.90
2018-08-28T13:24:04.643Z,99.90
2018-08-28T13:26:41.099Z,99.90
2018-08-28T13:32:00.127Z,99.90
2018-08-28T13:34:31.562Z,99.90
2018-08-28T13:37:01.945Z,99.90
2018-08-28T13:39:32.414Z,99.70
2018-08-28T13:42:03.516Z,99.90
2018-08-28T13:44:33.964Z,99.90
2018-08-28T13:47:05.223Z,99.90
2018-08-28T13:49:35.504Z,99.90
2018-08-28T13:52:05.901Z,99.90
2018-08-28T13:54:36.235Z,99.90
2018-08-28T13:57:07.436Z,99.90
2018-08-28T13:59:44.996Z,99.90
2018-08-28T14:02:15.402Z,99.90
2018-08-28T14:04:46.549Z,99.90
2018-08-28T14:07:17.642Z,99.90
2018-08-28T14:10:10.420Z,99.90
2018-08-28T14:12:40.808Z,99.90
2018-08-28T14:15:12.148Z,99.90
2018-08-28T14:17:42.559Z,99.90
2018-08-28T14:20:12.955Z,99.40
2018-08-28T14:22:43.344Z,99.90
2018-08-28T14:25:13.686Z,99.90
2018-08-28T14:27:44.082Z,99.50
2018-08-28T14:30:14.490Z,99.60
2018-08-28T14:32:44.914Z,99.90
2018-08-28T14:35:16.062Z,99.90
2018-08-28T14:37:46.448Z,99.90
2018-08-28T14:40:16.847Z,99.80
2018-08-28T14:43:05.568Z,99.50
2018-08-28T14:45:36.777Z,99.90
2018-08-28T14:48:07.174Z,99.90
2018-08-28T14:50:41.679Z,99.10
2018-08-28T14:53:12.002Z,98.60
2018-08-28T14:55:42.394Z,98.70
2018-08-28T14:58:12.820Z,99.00
2018-08-28T15:00:43.203Z,98.90
2018-08-28T15:03:15.642Z,99.10
2018-08-28T15:05:46.078Z,99.30
2018-08-28T15:08:17.217Z,98.90
2018-08-28T15:10:47.615Z,98.80
2018-08-28T15:13:18.027Z,98.50
2018-08-28T15:15:48.414Z,98.70
2018-08-28T15:18:18.794Z,98.80
2018-08-28T15:20:49.228Z,98.80
2018-08-28T15:23:19.592Z,97.90
2018-08-28T15:25:49.985Z,97.90
2018-08-28T15:28:21.101Z,97.60
2018-08-28T15:30:51.500Z,97.50
2018-08-28T15:33:22.926Z,98.10
2018-08-28T15:35:53.355Z,97.40
2018-08-28T15:38:23.717Z,97.20
2018-08-28T15:40:54.845Z,98.20
2018-08-28T15:43:25.275Z,98.20
2018-08-28T15:45:55.839Z,97.60
2018-08-28T15:48:26.211Z,98.10
2018-08-28T15:50:56.623Z,98.00
2018-08-28T15:53:27.010Z,98.70
2018-08-28T15:56:21.904Z,98.50
2018-08-28T15:59:14.322Z,97.80
2018-08-28T16:01:44.727Z,97.80
2018-08-28T16:04:15.111Z,98.10
2018-08-28T16:06:45.500Z,97.80
2018-08-28T16:09:15.908Z,97.40
2018-08-28T16:11:46.998Z,97.50
2018-08-28T16:14:37.783Z,97.60
2018-08-28T16:17:08.139Z,97.40
2018-08-28T16:19:38.523Z,96.60
2018-08-28T16:22:08.943Z,97.20
2018-08-28T16:24:39.333Z,97.40
2018-08-28T16:27:09.720Z,96.90
2018-08-28T16:29:40.951Z,97.10
2018-08-28T16:32:11.286Z,97.20
2018-08-28T16:34:45.652Z,97.30
2018-08-28T16:37:18.733Z,97.60
2018-08-28T16:39:49.125Z,97.60
2018-08-28T16:42:19.441Z,97.70
2018-08-28T16:44:49.785Z,97.40
2018-08-28T16:47:20.106Z,97.90
2018-08-28T16:49:55.576Z,97.10
2018-08-28T16:52:25.951Z,97.00
2018-08-28T16:54:56.325Z,97.60
2018-08-28T16:57:26.754Z,97.60
2018-08-28T16:59:57.156Z,97.60
2018-08-28T17:02:27.532Z,97.90
2018-08-28T17:04:57.878Z,97.70
2018-08-28T17:07:30.817Z,97.50
2018-08-28T17:10:01.194Z,97.60
2018-08-28T17:15:17.721Z,98.10
2018-08-28T17:17:48.117Z,98.10
2018-08-28T17:20:21.121Z,97.80
2018-08-28T17:22:54.999Z,97.70
2018-08-28T17:25:25.381Z,97.70
2018-08-28T17:27:55.994Z,97.80
2018-08-28T17:30:26.403Z,98.00
2018-08-28T17:32:56.726Z,98.10
2018-08-28T17:35:27.886Z,98.40
2018-08-28T17:37:59.004Z,98.10
2018-08-28T17:40:32.151Z,98.20
2018-08-28T17:43:05.630Z,98.10
2018-08-28T17:45:36.019Z,98.10
2018-08-28T17:48:06.399Z,98.10
2018-08-28T17:50:36.825Z,97.90
2018-08-28T17:53:07.190Z,98.00
2018-08-28T17:55:37.594Z,98.10
2018-08-28T17:58:08.007Z,98.10
2018-08-28T18:00:38.398Z,98.10
2018-08-28T18:03:09.549Z,98.50
2018-08-28T18:05:43.388Z,98.30
2018-08-28T18:08:13.778Z,98.30
2018-08-28T18:10:46.824Z,98.80
2018-08-28T18:13:17.939Z,98.80
2018-08-28T18:15:48.269Z,98.80
2018-08-28T18:18:18.657Z,98.60
2018-08-28T18:20:51.959Z,98.70
2018-08-28T18:23:23.111Z,99.20
2018-08-28T18:25:53.487Z,99.10
2018-08-28T18:28:23.919Z,99.20
2018-08-28T18:30:54.313Z,99.40
2018-08-28T18:33:24.722Z,99.80
2018-08-28T18:35:55.193Z,99.80
2018-08-28T18:38:28.024Z,99.70
2018-08-28T18:40:59.930Z,99.50
2018-08-28T18:43:30.326Z,99.50
2018-08-28T18:46:00.691Z,99.60
2018-08-28T18:48:32.110Z,99.40
2018-08-28T18:51:02.468Z,99.30
2018-08-28T18:53:38.939Z,99.20
2018-08-28T18:56:14.080Z,99.40
2018-08-28T18:58:44.371Z,99.40
2018-08-28T19:01:14.750Z,99.50
2018-08-28T19:03:50.215Z,99.60
2018-08-28T19:06:21.516Z,99.50
2018-08-28T19:09:11.335Z,99.80
2018-08-28T19:11:41.635Z,99.60
2018-08-28T19:14:14.834Z,99.60
2018-08-28T19:16:48.154Z,99.70
2018-08-28T19:19:19.317Z,99.90
2018-08-28T19:21:49.694Z,99.90
2018-08-28T19:24:20.133Z,99.90
2018-08-28T19:26:50.525Z,99.90
2018-08-28T19:29:20.914Z,99.90
2018-08-28T19:31:52.217Z,99.90
2018-08-28T19:34:32.599Z,99.90
2018-08-28T19:37:04.045Z,99.90
2018-08-28T19:39:34.447Z,99.90
2018-08-28T19:42:26.922Z,99.90
2018-08-28T19:44:57.303Z,99.90
2018-08-28T19:47:32.478Z,99.90
2018-08-28T19:50:02.887Z,99.90
2018-08-28T19:52:33.271Z,99.90
2018-08-28T19:55:03.738Z,99.90
2018-08-28T19:57:33.993Z,99.90
2018-08-28T20:00:07.067Z,99.90
2018-08-28T20:02:37.476Z,99.90
2018-08-28T20:05:30.054Z,99.90
2018-08-28T20:08:00.492Z,99.90
2018-08-28T20:10:30.883Z,99.90
2018-08-28T20:13:02.242Z,99.90
2018-08-28T20:15:32.665Z,99.90
2018-08-28T20:18:05.998Z,99.90
2018-08-28T20:20:37.144Z,99.90
2018-08-28T20:23:28.862Z,99.90
2018-08-28T20:26:02.676Z,99.90
2018-08-28T20:28:33.870Z,99.90
2018-08-28T20:31:12.115Z,99.90
2018-08-28T20:33:42.533Z,99.90
2018-08-28T20:36:12.974Z,99.90
2018-08-28T20:38:43.380Z,99.90
2018-08-28T20:41:13.789Z,99.90
2018-08-28T20:43:44.240Z,99.90
2018-08-28T20:46:14.585Z,99.90
2018-08-28T20:48:48.232Z,99.90
2018-08-28T20:51:18.637Z,99.90
2018-08-28T20:53:51.543Z,99.90
2018-08-28T20:59:06.926Z,99.90
2018-08-28T21:01:37.547Z,99.90
2018-08-28T21:04:08.683Z,99.90
2018-08-28T21:06:39.869Z,99.90
2018-08-28T21:09:10.242Z,99.90
2018-08-28T21:11:40.640Z,99.90
2018-08-28T21:14:11.043Z,99.90
2018-08-28T21:16:44.527Z,99.90
2018-08-28T21:19:14.921Z,99.90
2018-08-28T21:21:46.339Z,99.90
2018-08-28T21:24:17.035Z,99.90
2018-08-28T21:26:47.412Z,99.90
2018-08-28T21:29:17.836Z,99.90
2018-08-28T21:32:07.332Z,99.90
2018-08-28T21:34:37.728Z,99.90
2018-08-28T21:37:08.051Z,99.90
2018-08-28T21:39:38.472Z,99.90
2018-08-28T21:42:10.945Z,99.90
2018-08-28T21:44:42.037Z,99.90
2018-08-28T21:47:13.251Z,99.90
2018-08-28T21:49:43.649Z,99.90
2018-08-28T21:52:16.085Z,99.90
2018-08-28T21:54:46.502Z,99.90
2018-08-28T21:57:16.901Z,99.90
2018-08-28T21:59:50.362Z,99.90
2018-08-28T22:02:20.767Z,99.90
2018-08-28T22:04:51.913Z,99.90
2018-08-28T22:07:23.053Z,99.90
2018-08-28T22:09:54.215Z,99.90
2018-08-28T22:12:25.388Z,99.90
2018-08-28T22:15:14.908Z,99.90
2018-08-28T22:17:45.308Z,99.90
2018-08-28T22:20:15.709Z,99.90
2018-08-28T22:22:46.131Z,99.90
2018-08-28T22:25:16.517Z,99.90
2018-08-28T22:27:46.898Z,99.90
2018-08-28T22:30:36.351Z,99.90
2018-08-28T22:33:06.740Z,99.90
2018-08-28T22:35:37.122Z,99.90
2018-08-28T22:38:09.602Z,99.90
2018-08-28T22:40:42.022Z,99.90
2018-08-28T22:43:13.171Z,99.90
2018-08-28T22:45:44.360Z,99.90
2018-08-28T22:48:18.825Z,99.90
2018-08-28T22:50:49.222Z,99.90
2018-08-28T22:53:19.639Z,99.90
2018-08-28T22:55:54.102Z,99.90
2018-08-28T22:58:24.504Z,99.90
2018-08-28T23:01:02.251Z,99.90
2018-08-28T23:03:33.401Z,99.90
2018-08-28T23:06:03.780Z,99.90
2018-08-28T23:08:34.200Z,99.90
2018-08-28T23:11:04.594Z,99.90
2018-08-28T23:13:34.976Z,99.90
2018-08-28T23:16:05.383Z,99.90
2018-08-28T23:18:35.746Z,99.90
2018-08-28T23:21:06.128Z,99.90
2018-08-28T23:23:40.638Z,99.90
2018-08-28T23:26:16.137Z,99.90
2018-08-28T23:28:47.310Z,99.90
2018-08-28T23:31:17.716Z,99.90
2018-08-28T23:33:48.080Z,99.90
2018-08-28T23:36:18.480Z,99.90
2018-08-28T23:38:48.851Z,99.90
2018-08-28T23:41:38.625Z,99.90
2018-08-28T23:44:31.439Z,99.90
2018-08-28T23:47:01.778Z,99.90
2018-08-28T23:49:32.175Z,99.90
2018-08-28T23:52:02.500Z,99.90
2018-08-28T23:54:32.929Z,99.90
2018-08-28T23:57:04.090Z,99.90
2018-08-28T23:59:34.466Z,99.90
